Time;durP1;ratioP1;P1;durP2;ratioP2;P2;SDS_P1;SDS_P2;PMS_P1;PMS_P2;Temp;Humidity;BMP_temperature;BMP_pressure;BME280_temperature;BME280_humidity;BME280_pressure;Samples;Min_cycle;Max_cycle;Signal;HPM_P1;HPM_P2
2023/05/05 00:01:55;;;;;;;13.35;4.97;;;;;;;;;;4992810;28;20058;-84
2023/05/05 00:04:23;;;;;;;8.90;4.30;;;11.90;1.00;;;;;;4976473;28;20054;-83
2023/05/05 00:06:54;;;;;;;8.38;4.03;;;12.00;1.00;;;;;;4977285;28;20049;-83
2023/05/05 00:09:43;;;;;;;8.70;4.57;;;11.70;1.00;;;;;;4984690;28;20037;-84
2023/05/05 00:12:15;;;;;;;9.43;4.70;;;;;;;;;;4983765;28;20054;-84
2023/05/05 00:14:41;;;;;;;9.52;4.20;;;11.50;1.00;;;;;;4980733;28;20046;-84
2023/05/05 00:17:16;;;;;;;10.18;4.30;;;12.20;1.00;;;;;;4991245;28;20642;-83
2023/05/05 00:19:54;;;;;;;9.52;4.32;;;12.40;1.00;;;;;;4976340;28;20046;-84
2023/05/05 00:22:24;;;;;;;9.52;4.30;;;12.60;1.00;;;;;;4993131;28;20042;-84
2023/05/05 00:24:58;;;;;;;11.10;4.00;;;12.60;1.00;;;;;;4975440;28;20364;-84
2023/05/05 00:27:26;;;;;;;10.23;3.95;;;;;;;;;;4998791;28;20103;-84
2023/05/05 00:29:54;;;;;;;10.23;4.63;;;12.00;1.00;;;;;;5002932;28;20092;-84
2023/05/05 00:32:56;;;;;;;9.10;4.07;;;12.50;1.00;;;;;;4995761;28;20312;-85
2023/05/05 00:35:22;;;;;;;11.75;4.18;;;12.30;1.00;;;;;;5009393;28;20041;-83
2023/05/05 00:37:48;;;;;;;10.20;4.30;;;12.50;1.00;;;;;;4999639;28;20527;-84
2023/05/05 00:40:22;;;;;;;9.23;4.65;;;12.40;1.00;;;;;;4978370;28;20081;-84
2023/05/05 00:42:58;;;;;;;12.27;4.53;;;12.00;1.00;;;;;;4992913;28;20117;-84
2023/05/05 00:45:41;;;;;;;8.00;4.20;;;;;;;;;;4987450;28;20050;-85
2023/05/05 00:48:10;;;;;;;8.93;4.43;;;12.10;1.00;;;;;;4979607;28;20046;-84
2023/05/05 00:50:44;;;;;;;8.30;4.00;;;12.60;1.00;;;;;;4990960;28;20049;-84
2023/05/05 00:53:19;;;;;;;8.90;4.50;;;11.90;1.00;;;;;;4997425;28;20149;-83
2023/05/05 00:55:56;;;;;;;8.45;4.32;;;11.80;1.00;;;;;;4999509;28;20042;-84
2023/05/05 00:58:33;;;;;;;9.45;3.95;;;11.70;1.00;;;;;;4974685;28;20053;-83
2023/05/05 01:01:07;;;;;;;8.85;4.03;;;11.70;1.00;;;;;;4973102;28;20064;-85
2023/05/05 01:03:38;;;;;;;10.13;4.80;;;12.00;1.00;;;;;;4975534;28;20042;-84
2023/05/05 01:06:34;;;;;;;8.15;4.15;;;11.50;1.00;;;;;;4981384;28;20098;-85
2023/05/05 01:09:25;;;;;;;9.07;4.45;;;11.40;1.00;;;;;;5007093;28;20069;-84
2023/05/05 01:12:09;;;;;;;9.20;4.10;;;11.40;1.00;;;;;;4991321;28;20042;-83
2023/05/05 01:15:25;;;;;;;8.87;4.60;;;11.30;1.00;;;;;;5004176;28;20060;-83
2023/05/05 01:18:21;;;;;;;9.90;5.05;;;10.70;1.00;;;;;;4900834;29;20142;-83
2023/05/05 01:21:01;;;;;;;9.30;4.80;;;;;;;;;;4976823;28;20073;-84
2023/05/05 01:24:06;;;;;;;8.73;4.63;;;11.60;1.00;;;;;;4987598;28;20049;-85
2023/05/05 01:27:10;;;;;;;9.32;4.75;;;11.10;1.00;;;;;;4987527;28;20049;-84
2023/05/05 01:29:45;;;;;;;10.80;4.63;;;;;;;;;;4978610;28;20046;-84
2023/05/05 01:32:31;;;;;;;9.10;4.80;;;;;;;;;;4979792;28;20089;-85
2023/05/05 01:35:07;;;;;;;9.90;4.45;;;11.00;1.00;;;;;;4989172;28;20068;-84
2023/05/05 01:38:07;;;;;;;9.13;5.18;;;11.80;1.00;;;;;;4991066;28;20561;-85
2023/05/05 01:40:46;;;;;;;8.55;4.57;;;11.60;1.00;;;;;;4984123;28;20058;-84
2023/05/05 01:43:49;;;;;;;12.50;5.13;;;11.20;1.00;;;;;;4992977;28;20038;-84
2023/05/05 01:46:29;;;;;;;10.00;4.53;;;11.60;1.80;;;;;;4973465;28;20046;-84
2023/05/05 01:48:58;;;;;;;8.70;4.82;;;12.10;3.50;;;;;;4989543;28;20121;-85
2023/05/05 01:51:40;;;;;;;9.52;4.60;;;11.50;2.40;;;;;;4976714;28;20218;-84
2023/05/05 01:54:09;;;;;;;;;;;12.10;5.90;;;;;;4970813;28;20513;-84
2023/05/05 01:56:41;;;;;;;10.48;4.32;;;11.10;6.80;;;;;;4980138;28;19936;-83
2023/05/05 01:59:11;;;;;;;8.60;5.00;;;11.30;2.40;;;;;;4977051;28;20064;-85
2023/05/05 02:01:46;;;;;;;9.45;4.97;;;;;;;;;;4990038;28;20516;-84
2023/05/05 02:04:16;;;;;;;7.95;5.28;;;11.80;8.10;;;;;;4982132;28;20046;-85
2023/05/05 02:06:43;;;;;;;8.32;4.55;;;;;;;;;;4995876;28;20046;-84
2023/05/05 02:09:34;;;;;;;10.98;5.10;;;12.00;8.40;;;;;;5006921;28;20051;-84
2023/05/05 02:12:01;;;;;;;9.18;4.97;;;11.10;12.70;;;;;;4971513;28;20035;-84
2023/05/05 02:14:35;;;;;;;11.93;5.30;;;;;;;;;;4978103;28;20042;-83
2023/05/05 02:17:28;;;;;;;;;;;;;;;;;;;;;
2023/05/05 02:20:23;;;;;;;7.45;4.50;;;11.20;15.20;;;;;;4992206;28;20045;-85
2023/05/05 02:22:56;;;;;;;10.93;4.63;;;11.10;17.20;;;;;;4995843;28;20118;-84
2023/05/05 02:26:08;;;;;;;7.75;4.72;;;11.20;20.10;;;;;;4987100;28;20065;-84
2023/05/05 02:28:48;;;;;;;8.07;4.38;;;10.90;19.80;;;;;;4968554;28;20054;-84
2023/05/05 02:31:32;;;;;;;8.23;4.97;;;11.70;21.00;;;;;;4989102;28;20092;-84
2023/05/05 02:34:09;;;;;;;10.40;5.25;;;;;;;;;;4986726;28;20128;-85
2023/05/05 02:36:52;;;;;;;8.65;5.20;;;;;;;;;;4981117;28;20697;-85
2023/05/05 02:39:31;;;;;;;9.73;4.78;;;11.10;22.80;;;;;;4978429;28;20428;-85
2023/05/05 02:42:03;;;;;;;9.20;4.90;;;11.50;24.00;;;;;;4991712;28;20039;-85
2023/05/05 02:47:38;;;;;;;10.25;4.95;;;;;;;;;;4992095;28;20395;-83
2023/05/05 02:50:16;;;;;;;9.10;5.00;;;10.90;28.50;;;;;;4994585;28;20039;-84
2023/05/05 02:52:51;;;;;;;7.85;4.70;;;11.00;29.70;;;;;;4986360;28;20046;-84
2023/05/05 02:55:26;;;;;;;9.20;5.18;;;;;;;;;;4979370;28;20035;-85
2023/05/05 02:58:00;;;;;;;9.98;4.90;;;;;;;;;;4988170;28;20136;-85
2023/05/05 03:00:33;;;;;;;10.52;4.65;;;;;;;;;;4978425;28;20133;-85
2023/05/05 03:03:16;;;;;;;9.38;5.28;;;11.20;44.10;;;;;;4991696;28;20050;-84
2023/05/05 03:06:06;;;;;;;8.65;4.82;;;11.70;43.40;;;;;;4980232;28;20543;-85
2023/05/05 03:08:44;;;;;;;8.50;4.90;;;10.90;40.70;;;;;;4989623;28;20054;-84
2023/05/05 03:11:21;;;;;;;10.45;5.20;;;10.70;40.90;;;;;;4977861;28;20625;-84
2023/05/05 03:14:17;;;;;;;;;;;;;;;;;;;;;
2023/05/05 03:19:54;;;;;;;8.48;4.72;;;10.90;39.20;;;;;;4994707;28;20041;-84
2023/05/05 03:22:30;;;;;;;12.35;4.93;;;11.30;11.20;;;;;;4995967;28;20038;-84
2023/05/05 03:25:01;;;;;;;9.82;5.10;;;11.30;38.30;;;;;;4974598;28;20038;-84
2023/05/05 03:27:32;;;;;;;9.98;5.22;;;11.80;30.20;;;;;;4982626;28;20046;-84
2023/05/05 03:30:07;;;;;;;10.80;5.22;;;11.40;40.50;;;;;;5006128;28;20030;-84
2023/05/05 03:32:41;;;;;;;8.75;5.45;;;11.30;39.80;;;;;;4978355;28;20074;-84
2023/05/05 03:35:07;;;;;;;10.10;5.55;;;11.60;43.30;;;;;;5007547;28;20496;-84
2023/05/05 03:37:47;;;;;;;;;;;;;;;;;;;;;
2023/05/05 03:40:39;;;;;;;13.75;5.90;;;11.60;35.70;;;;;;4993591;28;20073;-83
2023/05/05 03:43:19;;;;;;;13.05;6.63;;;11.10;74.00;;;;;;4993284;28;20042;-84
2023/05/05 03:45:55;;;;;;;11.65;6.28;;;10.80;95.00;;;;;;4975590;28;20104;-85
2023/05/05 03:48:22;;;;;;;10.88;6.25;;;11.00;99.90;;;;;;4974725;28;20094;-84
2023/05/05 03:50:48;;;;;;;9.70;6.13;;;11.00;99.90;;;;;;4991497;28;20066;-85
2023/05/05 03:53:16;;;;;;;10.80;6.70;;;11.40;99.90;;;;;;4972130;28;20062;-83
2023/05/05 03:55:41;;;;;;;10.95;6.20;;;10.90;99.90;;;;;;5006362;28;20053;-84
2023/05/05 03:58:07;;;;;;;16.13;7.45;;;11.00;99.90;;;;;;4991746;28;20046;-85
2023/05/05 04:00:33;;;;;;;12.65;7.00;;;10.80;99.90;;;;;;4989525;28;21041;-83
2023/05/05 04:02:58;;;;;;;14.00;6.97;;;10.40;99.90;;;;;;4973973;28;20042;-84
2023/05/05 04:05:28;;;;;;;11.65;7.35;;;10.60;99.90;;;;;;4991348;28;20066;-84
2023/05/05 04:10:21;;;;;;;11.65;7.32;;;10.80;99.90;;;;;;5013412;28;20684;-55
2023/05/05 04:12:47;;;;;;;13.27;7.22;;;;;;;;;;5015765;28;20056;-57
2023/05/05 04:15:13;;;;;;;11.65;7.07;;;10.90;99.90;;;;;;5008888;28;20415;-57
2023/05/05 04:17:39;;;;;;;12.25;6.50;;;10.90;99.90;;;;;;5005902;28;20208;-56
2023/05/05 04:20:05;;;;;;;12.80;6.70;;;10.70;99.90;;;;;;5003365;28;20435;-56
2023/05/05 04:22:31;;;;;;;10.73;6.82;;;10.70;99.90;;;;;;5007111;28;20045;-58
2023/05/05 04:24:57;;;;;;;13.05;7.47;;;10.80;99.90;;;;;;5008621;28;20091;-57
2023/05/05 04:27:24;;;;;;;14.95;7.35;;;10.70;99.90;;;;;;5015483;28;20091;-57
2023/05/05 04:29:51;;;;;;;11.90;7.35;;;;;;;;;;5005946;28;20136;-58
2023/05/05 04:32:17;;;;;;;12.07;7.22;;;10.80;99.90;;;;;;5013875;28;20128;-57
2023/05/05 04:34:42;;;;;;;15.30;8.10;;;10.70;1.00;;;;;;5014467;28;20552;-58
2023/05/05 04:37:08;;;;;;;10.98;7.25;;;10.50;1.00;;;;;;5015921;28;20535;-57
2023/05/05 04:39:34;;;;;;;13.80;7.15;;;11.10;1.00;;;;;;5016967;28;20099;-58
2023/05/05 04:42:00;;;;;;;12.05;7.80;;;10.80;1.00;;;;;;5040153;22;20048;-52
2023/05/05 04:44:26;;;;;;;11.20;7.03;;;10.60;1.00;;;;;;5040706;28;20050;-55
2023/05/05 04:46:51;;;;;;;12.15;8.60;;;10.60;1.00;;;;;;5042288;28;21211;-54
2023/05/05 04:49:17;;;;;;;12.93;7.93;;;10.60;1.00;;;;;;5036760;28;20041;-55
2023/05/05 04:51:43;;;;;;;13.20;7.93;;;10.40;57.80;;;;;;5036735;28;20063;-55
2023/05/05 04:54:08;;;;;;;16.08;7.70;;;9.90;41.20;;;;;;5015334;28;20079;-56
2023/05/05 04:56:34;;;;;;;15.07;6.93;;;10.80;90.60;;;;;;5031986;28;20461;-55
2023/05/05 04:59:00;;;;;;;14.40;7.60;;;10.30;91.10;;;;;;5034874;28;20079;-55
2023/05/05 05:01:25;;;;;;;16.10;8.65;;;10.30;99.90;;;;;;5026728;28;20058;-55
2023/05/05 05:03:51;;;;;;;13.80;7.93;;;10.20;99.90;;;;;;5034474;28;20516;-55
2023/05/05 05:06:17;;;;;;;15.00;8.65;;;;;;;;;;5028866;28;20040;-56
2023/05/05 05:08:43;;;;;;;12.82;7.97;;;10.30;99.90;;;;;;5035444;28;20501;-56
2023/05/05 05:11:09;;;;;;;11.30;8.07;;;;;;;;;;5026323;28;20124;-56
2023/05/05 05:13:35;;;;;;;13.00;8.07;;;9.70;99.90;;;;;;5035606;28;20507;-55
2023/05/05 05:16:01;;;;;;;15.32;8.10;;;;;;;;;;5027783;28;20144;-57
2023/05/05 05:18:26;;;;;;;11.73;8.18;;;10.50;99.90;;;;;;5034110;28;20076;-58
2023/05/05 05:20:52;;;;;;;16.92;9.40;;;;;;;;;;5034781;28;20152;-56
2023/05/05 05:23:18;;;;;;;14.32;9.30;;;9.60;99.90;;;;;;5036699;28;20051;-54
2023/05/05 05:25:45;;;;;;;13.80;8.10;;;;;;;;;;5027058;28;20490;-55
2023/05/05 05:28:10;;;;;;;12.48;7.68;;;9.50;1.00;;;;;;5034979;28;20622;-55
2023/05/05 05:30:36;;;;;;;13.32;8.88;;;;;;;;;;5031991;28;20396;-56
2023/05/05 05:33:02;;;;;;;14.35;8.82;;;9.80;1.00;;;;;;5035387;28;20037;-57
2023/05/05 05:35:28;;;;;;;11.77;8.15;;;10.00;1.00;;;;;;5035840;28;20036;-56
2023/05/05 05:37:53;;;;;;;13.35;7.97;;;10.20;1.00;;;;;;5034460;28;20207;-57
2023/05/05 05:40:19;;;;;;;13.15;8.38;;;;;;;;;;5034116;28;20055;-57
2023/05/05 05:42:45;;;;;;;15.27;9.07;;;10.10;1.00;;;;;;5035912;28;20098;-56
2023/05/05 05:45:10;;;;;;;14.68;8.50;;;10.00;1.00;;;;;;5036581;28;20041;-55
2023/05/05 05:47:36;;;;;;;13.15;9.30;;;9.80;1.00;;;;;;5024422;28;20072;-56
2023/05/05 05:50:03;;;;;;;14.55;9.40;;;;;;;;;;5025384;28;20036;-56
2023/05/05 05:52:30;;;;;;;13.40;8.82;;;9.70;34.60;;;;;;5031686;28;20357;-56
2023/05/05 05:54:56;;;;;;;12.13;8.35;;;;;;;;;;5027546;28;20383;-56
2023/05/05 05:57:23;;;;;;;12.00;9.50;;;9.50;6.90;;;;;;5030594;28;20676;-57
2023/05/05 05:59:49;;;;;;;17.40;9.50;;;;;;;;;;5034299;28;20045;-56
2023/05/05 06:02:15;;;;;;;14.15;9.57;;;9.60;99.90;;;;;;5033449;28;20129;-56
2023/05/05 06:04:41;;;;;;;14.48;9.75;;;9.30;87.30;;;;;;5017520;28;20119;-56
2023/05/05 06:07:07;;;;;;;11.50;8.45;;;;;;;;;;5031691;28;20740;-55
2023/05/05 06:09:32;;;;;;;14.70;9.27;;;10.00;99.90;;;;;;5034140;28;20528;-56
2023/05/05 06:11:58;;;;;;;14.45;9.70;;;10.10;99.90;;;;;;5035226;28;20040;-56
2023/05/05 06:14:24;;;;;;;12.60;8.73;;;10.30;99.90;;;;;;5033906;28;20382;-56
2023/05/05 06:16:51;;;;;;;12.40;9.50;;;10.30;99.90;;;;;;5032831;28;20193;-56
2023/05/05 06:19:17;;;;;;;15.63;9.98;;;;;;;;;;5034074;28;20889;-57
2023/05/05 06:21:43;;;;;;;17.20;10.20;;;10.40;99.90;;;;;;5032938;28;20045;-56
2023/05/05 06:24:08;;;;;;;14.07;10.23;;;10.30;99.90;;;;;;5034731;28;20059;-57
2023/05/05 06:26:34;;;;;;;14.48;9.70;;;10.10;99.90;;;;;;5034172;28;20041;-57
2023/05/05 06:29:00;;;;;;;13.18;9.80;;;;;;;;;;5033874;28;20153;-56
2023/05/05 06:31:26;;;;;;;13.48;9.52;;;10.40;99.90;;;;;;5034790;28;20153;-58
2023/05/05 06:33:52;;;;;;;13.35;9.38;;;;;;;;;;5035010;28;20115;-56
2023/05/05 06:36:17;;;;;;;16.00;11.02;;;10.70;99.90;;;;;;5030975;28;20815;-56
2023/05/05 06:38:43;;;;;;;15.50;10.15;;;10.70;99.90;;;;;;5033870;28;20036;-55
2023/05/05 06:41:08;;;;;;;13.80;9.80;;;10.40;99.90;;;;;;5028654;28;20045;-56
2023/05/05 06:43:34;;;;;;;13.68;9.40;;;10.70;99.90;;;;;;5029180;28;20069;-56
2023/05/05 06:46:00;;;;;;;17.35;10.57;;;10.60;99.90;;;;;;5033310;28;20049;-57
2023/05/05 06:48:25;;;;;;;15.55;9.95;;;10.70;99.90;;;;;;5029573;28;20045;-57
2023/05/05 06:50:53;;;;;;;16.42;9.60;;;11.60;99.90;;;;;;5034158;28;20037;-56
2023/05/05 06:53:19;;;;;;;16.75;11.18;;;10.90;99.90;;;;;;5033122;28;20041;-56
2023/05/05 06:55:46;;;;;;;13.02;9.98;;;10.70;99.90;;;;;;5034635;28;20121;-53
2023/05/05 06:58:12;;;;;;;17.10;11.10;;;11.60;99.90;;;;;;5034503;28;20121;-55
2023/05/05 07:00:38;;;;;;;14.65;10.80;;;11.60;99.90;;;;;;5032905;28;20720;-56
2023/05/05 07:03:04;;;;;;;15.02;10.25;;;11.00;99.90;;;;;;5034595;28;20037;-56
2023/05/05 07:05:30;;;;;;;15.68;11.13;;;11.80;99.90;;;;;;5038708;28;20327;-57
2023/05/05 07:07:56;;;;;;;16.77;10.95;;;10.90;99.90;;;;;;5035878;28;20045;-55
2023/05/05 07:10:23;;;;;;;13.95;10.30;;;11.90;99.90;;;;;;5037305;28;20040;-56
2023/05/05 07:12:50;;;;;;;17.15;11.43;;;11.10;99.90;;;;;;5036863;28;20244;-56
2023/05/05 07:15:16;;;;;;;16.05;11.27;;;11.70;99.90;;;;;;5038531;28;20110;-57
2023/05/05 07:17:42;;;;;;;15.73;11.10;;;11.20;99.90;;;;;;5035973;28;20116;-58
2023/05/05 07:20:08;;;;;;;15.43;10.73;;;11.30;99.90;;;;;;5038113;28;20037;-57
2023/05/05 07:22:34;;;;;;;16.95;11.00;;;12.10;99.90;;;;;;5036054;28;20148;-58
2023/05/05 07:25:00;;;;;;;16.23;10.45;;;12.30;99.90;;;;;;5037617;28;20044;-58
2023/05/05 07:27:26;;;;;;;15.77;10.90;;;12.40;99.90;;;;;;5036513;28;20043;-58
2023/05/05 07:29:51;;;;;;;14.82;11.07;;;12.40;99.90;;;;;;5037201;28;20040;-56
2023/05/05 07:32:19;;;;;;;13.88;11.00;;;13.50;99.90;;;;;;5035215;28;20040;-56
2023/05/05 07:34:45;;;;;;;16.27;11.52;;;13.10;97.50;;;;;;5036497;28;20508;-56
2023/05/05 07:37:10;;;;;;;16.30;10.23;;;13.20;1.00;;;;;;5036327;28;20045;-57
2023/05/05 07:39:36;;;;;;;14.35;10.38;;;13.90;1.00;;;;;;5037102;28;20430;-57
2023/05/05 07:42:02;;;;;;;16.10;11.48;;;;;;;;;;5036652;28;20041;-57
2023/05/05 07:44:27;;;;;;;17.92;11.30;;;13.50;99.90;;;;;;5036767;28;20263;-57
2023/05/05 07:46:53;;;;;;;16.80;11.88;;;14.60;99.90;;;;;;5035333;28;20148;-57
2023/05/05 07:49:19;;;;;;;15.38;11.32;;;13.70;99.90;;;;;;5035400;28;20474;-56
2023/05/05 07:51:45;;;;;;;16.92;10.75;;;15.00;99.90;;;;;;5036519;28;20336;-56
2023/05/05 07:54:11;;;;;;;15.40;11.27;;;15.00;99.90;;;;;;5037060;28;20915;-58
2023/05/05 07:56:36;;;;;;;15.43;10.60;;;14.00;99.90;;;;;;5030057;28;20051;-57
2023/05/05 07:59:02;;;;;;;16.60;10.38;;;15.10;99.90;;;;;;5033275;28;20051;-57
2023/05/05 08:01:28;;;;;;;15.00;11.07;;;14.80;99.90;;;;;;5024987;28;20550;-57
2023/05/05 08:03:53;;;;;;;14.10;10.13;;;14.70;99.90;;;;;;5031504;28;20227;-57
2023/05/05 08:06:20;;;;;;;13.88;10.35;;;15.20;99.90;;;;;;5028350;28;20499;-55
2023/05/05 08:08:52;;;;;;;16.52;11.32;;;;;;;;;;5033743;28;20121;-55
2023/05/05 08:11:18;;;;;;;13.75;10.32;;;15.10;92.70;;;;;;5034182;28;20052;-56
2023/05/05 08:13:44;;;;;;;18.33;13.48;;;15.50;86.50;;;;;;5035092;28;20042;-55
2023/05/05 08:16:11;;;;;;;18.20;13.85;;;;;;;;;;5033290;28;20214;-57
2023/05/05 08:18:37;;;;;;;20.15;13.23;;;15.40;1.00;;;;;;5033640;28;20044;-55
2023/05/05 08:21:07;;;;;;;21.02;15.68;;;;;;;;;;5033141;28;20071;-57
2023/05/05 08:23:33;;;;;;;19.40;13.48;;;15.60;1.00;;;;;;5030981;28;20055;-56
2023/05/05 08:25:59;;;;;;;21.67;14.27;;;16.00;1.00;;;;;;5026744;28;20048;-56
2023/05/05 08:28:25;;;;;;;17.80;12.35;;;15.80;1.00;;;;;;5027516;28;20505;-56
2023/05/05 08:30:51;;;;;;;18.60;13.05;;;16.30;1.00;;;;;;5035120;28;20041;-57
2023/05/05 08:33:17;;;;;;;19.90;13.95;;;16.10;1.00;;;;;;5035447;28;20043;-56
2023/05/05 08:35:42;;;;;;;16.90;12.70;;;16.50;1.00;;;;;;5035471;28;20080;-58
2023/05/05 08:38:09;;;;;;;19.85;14.85;;;15.80;1.00;;;;;;5034670;28;20825;-57
2023/05/05 08:40:38;;;;;;;19.27;13.77;;;16.70;1.00;;;;;;5033782;28;20122;-57
2023/05/05 08:43:04;;;;;;;16.77;13.05;;;16.50;1.00;;;;;;5033901;28;20033;-57
2023/05/05 08:45:31;;;;;;;18.73;13.98;;;;;;;;;;5034415;28;20414;-57
2023/05/05 08:48:00;;;;;;;17.00;13.57;;;16.80;99.90;;;;;;5029018;28;20045;-57
2023/05/05 08:50:27;;;;;;;19.05;14.07;;;16.10;99.90;;;;;;5034239;28;20032;-57
2023/05/05 08:53:06;;;;;;;17.63;13.45;;;17.20;99.90;;;;;;5035254;28;20055;-57
2023/05/05 08:55:44;;;;;;;19.20;14.38;;;16.80;99.90;;;;;;5034819;28;20052;-58
2023/05/05 08:58:10;;;;;;;19.27;15.10;;;17.10;99.90;;;;;;5032407;28;20041;-58
2023/05/05 09:00:36;;;;;;;20.35;15.57;;;17.40;99.90;;;;;;5034842;28;20053;-57
2023/05/05 09:03:03;;;;;;;21.25;15.90;;;17.00;99.90;;;;;;5034363;28;20095;-57
2023/05/05 09:05:28;;;;;;;18.95;15.25;;;16.50;99.90;;;;;;5017136;28;20080;-57
2023/05/05 09:07:54;;;;;;;20.25;15.27;;;17.40;99.90;;;;;;5034002;28;20501;-57
2023/05/05 09:10:20;;;;;;;21.60;16.02;;;18.30;99.90;;;;;;5034381;28;20040;-57
2023/05/05 09:12:46;;;;;;;21.98;16.40;;;17.40;99.90;;;;;;5033393;28;20059;-57
2023/05/05 09:15:13;;;;;;;24.95;15.70;;;17.30;99.90;;;;;;5031367;28;20407;-58
2023/05/05 09:17:41;;;;;;;20.08;14.90;;;17.30;99.90;;;;;;5033813;28;20041;-57
2023/05/05 09:20:09;;;;;;;21.58;15.13;;;17.50;99.90;;;;;;5033166;28;20556;-57
2023/05/05 09:22:37;;;;;;;19.98;14.05;;;;;;;;;;5034579;28;20127;-56
2023/05/05 09:25:04;;;;;;;19.70;13.98;;;18.00;99.90;;;;;;5033257;28;20324;-57
2023/05/05 09:27:34;;;;;;;19.35;13.25;;;17.60;99.90;;;;;;5033087;28;20411;-57
2023/05/05 09:29:59;;;;;;;16.90;12.85;;;17.40;99.90;;;;;;5034389;28;20044;-58
2023/05/05 09:32:26;;;;;;;18.48;13.55;;;17.40;99.90;;;;;;5034364;28;20052;-57
2023/05/05 09:34:59;;;;;;;18.98;13.90;;;17.60;99.90;;;;;;5033116;28;20037;-58
2023/05/05 09:37:29;;;;;;;21.60;14.60;;;17.60;99.90;;;;;;5033774;28;20064;-57
2023/05/05 09:39:57;;;;;;;18.10;13.77;;;17.40;99.90;;;;;;5033642;28;20291;-56
2023/05/05 09:42:23;;;;;;;17.85;13.55;;;17.80;99.90;;;;;;5034312;28;20036;-57
2023/05/05 09:44:49;;;;;;;18.95;14.57;;;17.40;99.90;;;;;;5032955;28;20041;-58
2023/05/05 09:47:15;;;;;;;20.55;13.18;;;17.70;99.90;;;;;;5033604;28;20476;-56
2023/05/05 09:49:41;;;;;;;22.30;14.50;;;18.20;99.90;;;;;;5000159;28;20048;-57
2023/05/05 09:52:14;;;;;;;20.13;13.75;;;17.50;99.90;;;;;;5032415;28;20120;-56
2023/05/05 09:54:40;;;;;;;19.77;15.32;;;17.90;99.90;;;;;;5036609;28;20057;-57
2023/05/05 09:57:07;;;;;;;20.88;15.35;;;18.40;99.90;;;;;;5022125;28;20278;-57
2023/05/05 09:59:32;;;;;;;23.83;17.00;;;18.10;99.90;;;;;;5042510;28;20041;-54
2023/05/05 10:02:12;;;;;;;27.10;16.92;;;17.80;99.90;;;;;;5040038;28;20090;-57
2023/05/05 10:04:38;;;;;;;13.70;9.38;;;17.80;99.90;;;;;;5028756;28;20555;-57
2023/05/05 10:07:03;;;;;;;20.30;12.57;;;17.70;99.90;;;;;;5024748;28;20045;-57
2023/05/05 10:09:32;;;;;;;18.10;9.43;;;18.00;99.90;;;;;;5034279;28;20048;-58
2023/05/05 10:12:00;;;;;;;14.05;8.70;;;17.90;99.90;;;;;;5031571;28;20040;-57
2023/05/05 10:14:30;;;;;;;15.95;8.93;;;17.80;99.90;;;;;;5028414;28;20049;-57
2023/05/05 10:16:59;;;;;;;17.92;10.50;;;17.80;99.90;;;;;;5033601;28;20114;-57
2023/05/05 10:19:31;;;;;;;14.88;9.77;;;18.00;99.90;;;;;;5032039;28;20044;-54
2023/05/05 10:22:02;;;;;;;13.45;7.43;;;17.90;99.90;;;;;;5033712;28;20064;-56
2023/05/05 10:24:52;;;;;;;12.05;5.97;;;17.60;99.90;;;;;;5019218;28;20041;-57
2023/05/05 10:27:19;;;;;;;12.95;6.68;;;18.20;99.90;;;;;;5031687;28;20447;-58
2023/05/05 10:29:54;;;;;;;11.40;6.05;;;18.50;99.90;;;;;;5014208;28;20155;-57
2023/05/05 10:32:31;;;;;;;10.40;5.00;;;18.60;99.90;;;;;;5026139;28;20303;-57
2023/05/05 10:35:00;;;;;;;11.10;4.38;;;18.80;99.90;;;;;;5033925;28;20048;-57
2023/05/05 10:37:27;;;;;;;10.30;5.70;;;18.60;99.90;;;;;;5030939;28;20044;-56
2023/05/05 10:39:56;;;;;;;11.35;6.50;;;;;;;;;;5034061;28;20040;-58
2023/05/05 10:42:22;;;;;;;8.50;4.13;;;18.50;99.90;;;;;;5022461;28;20520;-57
2023/05/05 10:44:48;;;;;;;11.57;4.75;;;18.40;99.90;;;;;;5027257;28;20346;-58
2023/05/05 10:47:18;;;;;;;7.80;3.80;;;18.90;99.90;;;;;;5024223;28;20080;-55
2023/05/05 10:49:54;;;;;;;10.00;5.75;;;18.10;99.90;;;;;;5035178;28;20040;-58
2023/05/05 10:52:24;;;;;;;9.50;4.38;;;19.30;99.90;;;;;;5054039;28;20043;-59
2023/05/05 10:55:08;;;;;;;8.25;4.32;;;18.50;99.90;;;;;;5034827;28;20045;-57
2023/05/05 10:57:39;;;;;;;9.98;5.10;;;18.90;90.30;;;;;;5037898;28;20045;-58
2023/05/05 11:00:07;;;;;;;11.63;7.07;;;18.60;98.20;;;;;;5034330;28;20124;-57
2023/05/05 11:02:34;;;;;;;9.98;6.28;;;18.70;96.20;;;;;;5033422;28;20045;-57
2023/05/05 11:05:07;;;;;;;9.65;5.38;;;19.20;96.50;;;;;;5024755;28;20052;-57
2023/05/05 11:07:33;;;;;;;9.10;5.90;;;19.10;82.80;;;;;;5033565;28;20083;-57
2023/05/05 11:10:01;;;;;;;10.95;6.65;;;19.00;97.00;;;;;;5033828;28;20505;-56
2023/05/05 11:12:31;;;;;;;13.88;7.07;;;19.10;97.80;;;;;;5033624;28;20037;-56
2023/05/05 11:15:19;;;;;;;9.32;5.82;;;18.40;97.40;;;;;;5024368;28;20056;-57
2023/05/05 11:17:46;;;;;;;9.30;4.40;;;18.70;84.70;;;;;;5031829;28;20558;-57
2023/05/05 11:20:12;;;;;;;6.35;3.20;;;18.30;92.60;;;;;;5032262;28;20068;-56
2023/05/05 11:22:59;;;;;;;6.68;3.85;;;19.20;78.40;;;;;;5033493;28;20170;-57
2023/05/05 11:25:40;;;;;;;9.02;4.50;;;18.90;64.00;;;;;;5024934;28;20051;-56
2023/05/05 11:28:09;;;;;;;8.88;4.30;;;19.00;48.70;;;;;;5031139;28;20052;-57
2023/05/05 11:30:54;;;;;;;8.50;4.47;;;18.70;60.90;;;;;;5040407;28;20128;-55
2023/05/05 11:33:29;;;;;;;9.52;5.38;;;20.30;31.20;;;;;;5032958;28;20376;-57
2023/05/05 11:36:08;;;;;;;9.27;6.15;;;19.30;40.10;;;;;;5033521;28;20132;-57
2023/05/05 11:38:56;;;;;;;11.07;6.45;;;18.40;61.50;;;;;;5026334;28;20218;-57
2023/05/05 11:41:44;;;;;;;7.97;5.15;;;19.30;38.00;;;;;;5033238;28;20045;-57
2023/05/05 11:44:19;;;;;;;9.48;5.72;;;19.20;39.80;;;;;;5033581;28;20042;-56
2023/05/05 11:46:51;;;;;;;12.45;5.88;;;18.70;28.60;;;;;;5026215;28;20117;-58
2023/05/05 11:49:27;;;;;;;10.23;5.50;;;19.40;59.40;;;;;;5032844;28;20037;-58
2023/05/05 11:52:01;;;;;;;8.57;5.13;;;19.50;59.10;;;;;;5037016;28;20041;-57
2023/05/05 11:54:27;;;;;;;9.73;5.90;;;19.60;46.60;;;;;;5030049;28;20580;-57
2023/05/05 11:56:55;;;;;;;9.05;5.88;;;19.10;45.50;;;;;;5034754;28;20151;-58
2023/05/05 11:59:21;;;;;;;12.60;6.72;;;19.00;50.70;;;;;;5030015;28;20036;-58
2023/05/05 12:01:46;;;;;;;10.20;5.50;;;19.40;48.90;;;;;;5037249;28;20044;-58
2023/05/05 12:04:14;;;;;;;11.48;5.80;;;19.20;56.60;;;;;;5037252;28;20439;-57
2023/05/05 12:06:41;;;;;;;11.15;6.38;;;18.50;50.90;;;;;;5036542;28;20115;-57
2023/05/05 12:09:18;;;;;;;9.93;5.90;;;19.30;51.00;;;;;;5035406;28;20434;-57
2023/05/05 12:11:53;;;;;;;10.73;6.05;;;18.90;53.40;;;;;;5034999;28;20040;-57
2023/05/05 12:14:20;;;;;;;10.40;7.07;;;19.00;28.70;;;;;;5035733;28;20048;-56
2023/05/05 12:16:56;;;;;;;12.50;7.35;;;18.60;52.10;;;;;;5018605;28;20185;-57
2023/05/05 12:19:23;;;;;;;10.23;6.80;;;19.30;59.00;;;;;;5037083;28;20516;-56
2023/05/05 12:21:49;;;;;;;17.73;8.00;;;18.60;54.70;;;;;;5036872;28;20048;-56
2023/05/05 12:24:14;;;;;;;11.02;6.50;;;18.90;57.70;;;;;;5036715;28;20040;-55
2023/05/05 12:26:40;;;;;;;12.98;7.93;;;19.00;64.60;;;;;;5019029;28;20049;-56
2023/05/05 12:29:06;;;;;;;18.60;8.52;;;18.40;62.40;;;;;;5036482;28;20441;-56
2023/05/05 12:31:40;;;;;;;10.57;7.00;;;18.80;64.50;;;;;;5034691;28;20095;-57
2023/05/05 12:34:08;;;;;;;12.07;7.65;;;18.10;72.60;;;;;;5026305;28;20045;-57
2023/05/05 12:36:35;;;;;;;11.20;6.65;;;18.20;69.60;;;;;;5035277;28;20390;-56
2023/05/05 12:39:02;;;;;;;12.25;7.25;;;18.30;69.20;;;;;;5036832;28;20048;-56
2023/05/05 12:41:28;;;;;;;10.68;6.68;;;19.00;70.50;;;;;;5032061;28;20041;-57
2023/05/05 12:43:57;;;;;;;11.60;6.28;;;18.90;69.40;;;;;;5035500;28;20077;-56
2023/05/05 12:46:24;;;;;;;10.07;6.32;;;18.30;76.20;;;;;;5017840;28;20159;-57
2023/05/05 12:49:03;;;;;;;12.32;6.45;;;18.40;70.50;;;;;;5031647;28;20518;-57
2023/05/05 12:51:31;;;;;;;13.15;6.78;;;18.20;72.10;;;;;;5036380;28;20525;-56
2023/05/05 12:54:10;;;;;;;9.13;5.95;;;18.90;75.10;;;;;;5036307;28;20049;-57
2023/05/05 12:56:41;;;;;;;12.95;6.28;;;19.00;74.30;;;;;;5028927;28;20119;-55
2023/05/05 12:59:27;;;;;;;12.75;6.53;;;18.50;71.20;;;;;;5036401;28;20556;-57
2023/05/05 13:01:53;;;;;;;10.45;6.53;;;18.00;81.40;;;;;;5036866;28;20037;-57
2023/05/05 13:04:21;;;;;;;11.52;6.03;;;18.70;69.70;;;;;;5036380;28;20320;-56
2023/05/05 13:06:48;;;;;;;10.73;7.35;;;17.80;80.20;;;;;;5007888;28;20041;-55
2023/05/05 13:09:32;;;;;;;10.13;6.80;;;18.40;85.10;;;;;;5015603;28;20144;-56
2023/05/05 13:12:01;;;;;;;14.73;6.60;;;;;;;;;;5024636;28;20045;-57
2023/05/05 13:14:29;;;;;;;11.50;6.93;;;17.40;93.10;;;;;;5029572;28;20588;-57
2023/05/05 13:16:55;;;;;;;11.38;7.65;;;17.50;96.30;;;;;;5031191;28;20309;-57
2023/05/05 13:19:23;;;;;;;11.10;6.70;;;17.40;99.90;;;;;;5032170;28;20457;-57
2023/05/05 13:21:50;;;;;;;12.70;6.80;;;17.00;99.90;;;;;;5028202;28;20045;-57
2023/05/05 13:24:16;;;;;;;9.30;6.45;;;16.90;99.90;;;;;;5029143;28;20059;-58